Time;durP1;ratioP1;P1;durP2;ratioP2;P2;SDS_P1;SDS_P2;PMS_P1;PMS_P2;Temp;Humidity;BMP_temperature;BMP_pressure;BME280_temperature;BME280_humidity;BME280_pressure;Samples;Min_cycle;Max_cycle;Signal;HPM_P1;HPM_P2
2024/01/07 00:02:22;;;;;;;5.95;1.67;;;3.70;99.90;;;;;;6267830;28;20057;-80
2024/01/07 00:05:24;;;;;;;8.43;2.25;;;3.70;99.90;;;;;;6266890;28;20534;-81
2024/01/07 00:08:26;;;;;;;6.78;1.95;;;3.60;99.90;;;;;;6268028;28;20496;-81
2024/01/07 00:11:27;;;;;;;11.45;2.53;;;3.70;99.90;;;;;;6266912;28;20056;-81
2024/01/07 00:14:29;;;;;;;8.73;2.08;;;3.60;99.90;;;;;;6262244;28;20045;-80
2024/01/07 00:17:31;;;;;;;4.88;1.63;;;3.70;99.90;;;;;;6268115;28;20531;-82
2024/01/07 00:20:32;;;;;;;8.45;2.00;;;3.60;99.90;;;;;;6267852;28;20138;-82
2024/01/07 00:23:34;;;;;;;8.23;2.05;;;3.60;99.90;;;;;;6267400;28;20045;-82
2024/01/07 00:26:36;;;;;;;7.80;1.63;;;3.60;99.90;;;;;;6267628;28;20057;-80
2024/01/07 00:29:37;;;;;;;7.13;2.05;;;3.50;99.90;;;;;;6264470;28;20548;-81
2024/01/07 00:32:39;;;;;;;7.93;1.92;;;3.40;99.90;;;;;;6267255;28;20060;-83
2024/01/07 00:35:40;;;;;;;9.40;2.15;;;3.60;99.90;;;;;;6266207;28;20136;-82
2024/01/07 00:38:42;;;;;;;11.57;2.55;;;3.40;99.90;;;;;;6268139;28;20500;-82
2024/01/07 00:41:44;;;;;;;7.55;1.77;;;3.40;99.90;;;;;;6267511;28;20049;-82
2024/01/07 00:44:45;;;;;;;12.63;2.47;;;3.30;99.90;;;;;;6264952;28;20060;-82
2024/01/07 00:47:47;;;;;;;9.48;2.60;;;3.30;99.90;;;;;;6265462;28;20052;-82
2024/01/07 00:50:49;;;;;;;12.00;2.65;;;3.20;99.90;;;;;;6267463;28;20049;-82
2024/01/07 00:53:51;;;;;;;9.10;2.42;;;3.10;99.90;;;;;;6267508;28;20056;-82
2024/01/07 00:56:52;;;;;;;8.00;2.17;;;3.10;99.90;;;;;;6269859;28;20408;-81
2024/01/07 00:59:54;;;;;;;7.40;2.03;;;3.00;99.90;;;;;;6269382;28;20057;-82
2024/01/07 01:02:55;;;;;;;9.35;2.05;;;3.10;99.90;;;;;;6270472;28;20614;-82
2024/01/07 01:05:57;;;;;;;8.23;2.10;;;3.00;99.90;;;;;;6271711;28;20053;-82
2024/01/07 01:08:59;;;;;;;6.82;2.35;;;3.00;99.90;;;;;;6271866;28;20045;-82
2024/01/07 01:12:00;;;;;;;8.98;2.08;;;2.90;99.90;;;;;;6271824;28;20052;-84
2024/01/07 01:15:02;;;;;;;9.20;1.90;;;2.90;99.90;;;;;;6268770;28;20053;-82
2024/01/07 01:18:04;;;;;;;13.52;2.85;;;2.80;99.90;;;;;;6271414;28;20060;-82
2024/01/07 01:21:05;;;;;;;7.60;1.88;;;2.80;99.90;;;;;;6269035;28;20053;-81
2024/01/07 01:24:07;;;;;;;7.43;2.08;;;2.80;99.90;;;;;;6271235;28;20064;-81
2024/01/07 01:27:09;;;;;;;9.18;2.00;;;2.70;99.90;;;;;;6269926;28;20079;-82
2024/01/07 01:30:10;;;;;;;8.13;2.08;;;2.70;99.90;;;;;;6268186;28;20080;-81
2024/01/07 01:33:12;;;;;;;10.52;2.10;;;2.70;99.90;;;;;;6270807;28;20102;-82
2024/01/07 01:36:14;;;;;;;6.25;1.98;;;2.60;99.90;;;;;;6271336;28;20485;-81
2024/01/07 01:39:15;;;;;;;7.13;1.95;;;2.60;99.90;;;;;;6271137;28;20061;-82
2024/01/07 01:42:17;;;;;;;5.80;1.73;;;2.60;99.90;;;;;;6270593;28;20041;-82
2024/01/07 01:45:19;;;;;;;9.48;2.35;;;2.60;99.90;;;;;;6266113;28;20579;-81
2024/01/07 01:48:20;;;;;;;7.90;2.00;;;2.50;99.90;;;;;;6268824;28;20049;-82
2024/01/07 01:51:22;;;;;;;6.70;1.83;;;2.50;99.90;;;;;;6270694;28;20053;-84
2024/01/07 01:54:24;;;;;;;5.07;1.77;;;;;;;;;;6269573;28;20103;-82
2024/01/07 01:57:26;;;;;;;6.38;1.92;;;2.40;99.30;;;;;;6269297;28;20584;-83
2024/01/07 02:00:27;;;;;;;8.23;1.95;;;3.80;99.60;;;;;;6269767;28;20045;-83
2024/01/07 02:03:30;;;;;;;5.72;2.00;;;;;;;;;;6269131;28;20508;-83
2024/01/07 02:06:32;;;;;;;10.45;2.05;;;;;;;;;;6270956;28;20087;-82
2024/01/07 02:09:34;;;;;;;8.05;1.95;;;;;;;;;;6270526;28;20417;-83
2024/01/07 02:12:36;;;;;;;5.88;1.92;;;;;;;;;;6269982;28;20135;-82
2024/01/07 02:15:38;;;;;;;12.73;2.17;;;2.50;94.50;;;;;;6266539;28;20052;-82
2024/01/07 02:18:39;;;;;;;5.97;1.50;;;2.40;95.30;;;;;;6269840;28;20056;-81
2024/01/07 02:21:41;;;;;;;7.35;1.80;;;2.50;92.90;;;;;;6264273;28;20052;-81
2024/01/07 02:24:43;;;;;;;5.30;1.40;;;2.50;91.60;;;;;;6270059;28;20060;-81
2024/01/07 02:27:45;;;;;;;8.63;1.60;;;2.40;92.50;;;;;;6268828;28;20750;-81
2024/01/07 02:30:47;;;;;;;8.02;2.05;;;2.40;93.00;;;;;;6269045;28;20113;-81
2024/01/07 02:33:48;;;;;;;5.45;1.73;;;2.30;94.20;;;;;;6269999;28;20053;-81
2024/01/07 02:36:50;;;;;;;9.90;1.95;;;2.30;94.00;;;;;;6268990;28;20064;-81
2024/01/07 02:39:52;;;;;;;7.95;1.60;;;2.30;94.60;;;;;;6269567;28;20060;-81
2024/01/07 02:43:02;;;;;;;;;;;2.30;96.30;;;;;;6272900;28;20056;-82
2024/01/07 02:46:04;;;;;;;9.48;1.80;;;2.10;96.50;;;;;;6264932;28;20078;-81
2024/01/07 02:49:05;;;;;;;5.57;1.60;;;2.20;95.60;;;;;;6268631;28;20140;-82
2024/01/07 02:52:07;;;;;;;10.05;1.83;;;2.30;96.60;;;;;;6269424;28;20064;-82
2024/01/07 02:55:09;;;;;;;5.18;1.92;;;2.30;96.60;;;;;;6269869;28;20136;-83
2024/01/07 02:58:10;;;;;;;8.07;1.90;;;2.20;96.70;;;;;;6268811;28;20053;-83
2024/01/07 03:01:12;;;;;;;13.88;3.03;;;2.20;96.60;;;;;;6267506;28;20144;-82
2024/01/07 03:04:14;;;;;;;6.05;1.80;;;2.20;96.70;;;;;;6259016;23;20049;-81
2024/01/07 03:07:16;;;;;;;6.20;1.60;;;2.20;97.40;;;;;;6265716;28;20055;-81
2024/01/07 03:10:18;;;;;;;7.15;2.08;;;2.20;97.30;;;;;;6269705;28;20044;-82
2024/01/07 03:13:20;;;;;;;5.60;1.60;;;2.20;97.50;;;;;;6267378;28;20067;-83
2024/01/07 03:16:22;;;;;;;9.02;2.00;;;;;;;;;;6243367;28;20503;-82
2024/01/07 03:19:24;;;;;;;6.88;1.80;;;;;;;;;;6243721;28;20144;-82
2024/01/07 03:22:26;;;;;;;8.45;1.73;;;2.20;96.40;;;;;;6268167;28;20423;-82
2024/01/07 03:25:28;;;;;;;8.32;2.00;;;;;;;;;;6266614;28;20064;-82
2024/01/07 03:28:30;;;;;;;7.97;1.95;;;2.00;98.30;;;;;;6266721;28;20565;-82
2024/01/07 03:31:31;;;;;;;5.38;1.77;;;2.00;99.70;;;;;;6267322;28;20053;-82
2024/01/07 03:34:33;;;;;;;6.57;1.80;;;2.00;99.90;;;;;;6264493;28;20091;-82
2024/01/07 03:37:35;;;;;;;6.95;1.90;;;2.00;98.90;;;;;;6268124;28;20754;-82
2024/01/07 03:40:37;;;;;;;8.35;1.73;;;2.00;99.70;;;;;;6268310;28;20439;-85
2024/01/07 03:43:38;;;;;;;7.45;1.60;;;2.00;98.90;;;;;;6266533;28;20057;-82
2024/01/07 03:46:41;;;;;;;7.88;1.65;;;;;;;;;;6266908;28;20049;-83
2024/01/07 03:49:42;;;;;;;7.25;1.58;;;2.00;95.50;;;;;;6267472;28;20064;-83
2024/01/07 03:52:44;;;;;;;5.70;1.70;;;2.20;94.10;;;;;;6268121;28;20088;-82
2024/01/07 03:55:46;;;;;;;4.72;1.30;;;;;;;;;;6266827;28;20053;-82
2024/01/07 03:58:48;;;;;;;6.40;1.70;;;;;;;;;;6252460;28;20057;-84
2024/01/07 04:01:50;;;;;;;8.77;1.52;;;2.20;91.40;;;;;;6268092;28;20419;-82
2024/01/07 04:04:51;;;;;;;8.15;1.30;;;2.10;91.40;;;;;;6266243;28;20080;-83
2024/01/07 04:07:53;;;;;;;3.92;1.27;;;2.10;91.50;;;;;;6268282;28;20057;-83
2024/01/07 04:10:55;;;;;;;6.85;1.83;;;2.30;92.30;;;;;;6268275;28;20408;-83
2024/01/07 04:13:56;;;;;;;6.97;1.27;;;2.00;91.40;;;;;;6264018;28;20059;-83
2024/01/07 04:16:58;;;;;;;6.68;1.63;;;2.60;92.10;;;;;;6267862;28;20060;-82
2024/01/07 04:19:59;;;;;;;9.15;1.50;;;1.90;92.40;;;;;;6266750;28;20053;-83
2024/01/07 04:23:01;;;;;;;7.55;1.48;;;1.80;92.50;;;;;;6250162;28;20061;-82
2024/01/07 04:26:03;;;;;;;6.45;1.30;;;1.80;92.20;;;;;;6267220;28;20060;-83
2024/01/07 04:29:04;;;;;;;4.43;1.48;;;1.90;92.60;;;;;;6264736;28;20056;-82
2024/01/07 04:32:06;;;;;;;4.70;1.42;;;1.90;92.20;;;;;;6268451;28;20053;-82
2024/01/07 04:35:08;;;;;;;6.20;1.50;;;;;;;;;;6270909;28;20060;-82
2024/01/07 04:38:10;;;;;;;8.68;1.50;;;;;;;;;;6272769;28;20057;-81
2024/01/07 04:41:12;;;;;;;9.90;1.98;;;2.80;92.90;;;;;;6264448;28;20053;-84
2024/01/07 04:44:14;;;;;;;6.40;1.52;;;;;;;;;;6268353;28;20581;-82
2024/01/07 04:47:15;;;;;;;8.40;1.63;;;1.80;95.10;;;;;;6272809;28;20056;-83
2024/01/07 04:50:19;;;;;;;5.32;1.70;;;;;;;;;;6272658;28;20522;-82
2024/01/07 04:53:22;;;;;;;5.32;1.40;;;;;;;;;;6273181;28;20420;-82
2024/01/07 04:56:24;;;;;;;8.57;1.60;;;;;;;;;;6277204;28;20403;-81
2024/01/07 04:59:25;;;;;;;5.60;1.95;;;1.80;95.10;;;;;;6279747;28;20053;-84
2024/01/07 05:02:27;;;;;;;4.75;1.55;;;1.70;96.30;;;;;;6268025;28;20060;-82
2024/01/07 05:05:28;;;;;;;8.20;1.83;;;1.60;97.90;;;;;;6281596;28;20096;-82
2024/01/07 05:08:30;;;;;;;7.65;1.58;;;1.60;98.00;;;;;;6283060;28;20059;-84
2024/01/07 05:11:32;;;;;;;5.15;1.92;;;1.60;98.90;;;;;;6271313;28;20514;-83
2024/01/07 05:14:34;;;;;;;8.38;2.00;;;1.50;99.90;;;;;;6270019;28;20468;-84
2024/01/07 05:17:35;;;;;;;6.15;1.73;;;1.50;99.90;;;;;;6272172;28;20049;-83
2024/01/07 05:20:37;;;;;;;7.28;1.60;;;1.50;99.90;;;;;;6272193;28;20420;-83
2024/01/07 05:23:39;;;;;;;7.05;2.00;;;1.60;99.90;;;;;;6271600;28;20053;-83
2024/01/07 05:26:40;;;;;;;7.22;1.98;;;1.50;99.90;;;;;;6271400;28;20053;-83
2024/01/07 05:29:42;;;;;;;7.97;2.05;;;1.60;99.70;;;;;;6258996;28;20091;-84
2024/01/07 05:32:43;;;;;;;9.23;1.50;;;1.60;99.00;;;;;;6273135;28;20053;-84
2024/01/07 05:35:45;;;;;;;6.78;1.40;;;2.60;98.20;;;;;;6267509;28;20075;-84
2024/01/07 05:38:47;;;;;;;4.07;1.30;;;1.70;96.00;;;;;;6270388;28;20053;-84
2024/01/07 05:41:48;;;;;;;6.95;1.40;;;1.90;95.40;;;;;;6270930;28;20060;-84
2024/01/07 05:44:50;;;;;;;7.55;1.40;;;1.90;94.00;;;;;;6269712;28;20618;-83
2024/01/07 05:47:52;;;;;;;5.88;1.30;;;2.00;93.60;;;;;;6268893;28;20049;-83
2024/01/07 05:50:53;;;;;;;9.35;1.67;;;1.50;92.70;;;;;;6270466;28;20546;-83
2024/01/07 05:53:55;;;;;;;8.68;1.30;;;;;;;;;;6270419;28;20053;-84
2024/01/07 05:56:57;;;;;;;4.25;1.20;;;;;;;;;;6255318;28;20064;-83
2024/01/07 05:59:59;;;;;;;5.90;1.70;;;2.10;92.30;;;;;;6268574;28;20611;-84
2024/01/07 06:03:01;;;;;;;6.82;1.73;;;2.20;92.30;;;;;;6262083;28;20045;-83
2024/01/07 06:06:02;;;;;;;5.15;1.30;;;2.10;92.20;;;;;;6266954;28;20423;-83
2024/01/07 06:09:04;;;;;;;5.47;1.45;;;2.00;93.10;;;;;;6270291;28;20427;-83
2024/01/07 06:12:06;;;;;;;8.45;1.73;;;2.00;93.20;;;;;;6269262;28;20060;-84
2024/01/07 06:15:07;;;;;;;4.97;1.50;;;1.80;94.20;;;;;;6248630;28;20166;-83
2024/01/07 06:18:09;;;;;;;5.30;1.23;;;1.90;94.30;;;;;;6268204;28;20499;-84
2024/01/07 06:21:11;;;;;;;6.75;1.40;;;1.90;95.50;;;;;;6259186;28;20406;-84
2024/01/07 06:24:13;;;;;;;5.43;1.60;;;;;;;;;;6269073;28;20562;-84
2024/01/07 06:27:15;;;;;;;4.45;1.20;;;;;;;;;;6267652;28;20393;-83
2024/01/07 06:30:18;;;;;;;5.70;1.42;;;2.10;99.90;;;;;;6267342;28;20056;-83
2024/01/07 06:33:20;;;;;;;4.07;1.50;;;2.00;94.30;;;;;;6269884;28;20048;-83
2024/01/07 06:36:22;;;;;;;6.82;1.58;;;1.90;95.10;;;;;;6259149;28;20604;-83
2024/01/07 06:39:26;;;;;;;6.00;1.50;;;;;;;;;;6267861;28;20061;-83
2024/01/07 06:42:28;;;;;;;5.53;1.55;;;1.90;96.20;;;;;;6269751;28;20053;-82
2024/01/07 06:45:30;;;;;;;8.90;1.70;;;1.90;96.90;;;;;;6265270;28;20049;-83
2024/01/07 06:48:31;;;;;;;6.53;1.40;;;1.80;97.80;;;;;;6268229;28;20503;-83
2024/01/07 06:51:34;;;;;;;7.90;1.67;;;;;;;;;;6266101;28;20454;-83
2024/01/07 06:54:35;;;;;;;5.47;1.25;;;1.70;99.90;;;;;;6268206;28;20096;-83
2024/01/07 06:57:37;;;;;;;5.90;1.40;;;1.70;99.90;;;;;;6269500;28;20053;-84
2024/01/07 07:00:38;;;;;;;5.68;1.40;;;1.80;99.90;;;;;;6264083;28;20060;-83
2024/01/07 07:03:41;;;;;;;6.85;1.40;;;;;;;;;;6268283;28;20060;-84
2024/01/07 07:06:43;;;;;;;5.35;1.27;;;;;;;;;;6267467;28;20412;-84
2024/01/07 07:09:46;;;;;;;9.52;1.52;;;;;;;;;;6268003;28;20052;-83
2024/01/07 07:12:50;;;;;;;5.70;1.50;;;;;;;;;;6268690;28;20132;-82
2024/01/07 07:15:52;;;;;;;6.38;1.20;;;1.90;99.90;;;;;;6267499;28;20412;-82
2024/01/07 07:18:54;;;;;;;5.90;1.58;;;1.90;99.90;;;;;;6243060;28;20064;-83
2024/01/07 07:21:55;;;;;;;7.78;1.60;;;1.80;99.90;;;;;;6271576;22;20054;-78
2024/01/07 07:24:57;;;;;;;5.07;1.27;;;1.90;99.90;;;;;;6266634;28;20056;-79
2024/01/07 07:28:03;;;;;;;7.55;1.60;;;1.80;99.90;;;;;;6244570;28;20049;-79
2024/01/07 07:31:04;;;;;;;7.13;1.42;;;1.90;99.90;;;;;;6261814;28;20138;-79
2024/01/07 07:34:06;;;;;;;6.47;1.35;;;1.80;99.90;;;;;;6243238;28;20079;-78
2024/01/07 07:37:08;;;;;;;4.63;1.30;;;1.90;99.90;;;;;;6267818;28;20045;-80
2024/01/07 07:40:11;;;;;;;7.18;1.48;;;1.80;99.90;;;;;;6226777;28;20070;-78
2024/01/07 07:43:14;;;;;;;6.32;1.30;;;1.80;99.90;;;;;;6247528;28;20184;-78
2024/01/07 07:46:16;;;;;;;6.18;1.42;;;1.80;99.90;;;;;;6264771;28;20053;-78
2024/01/07 07:49:18;;;;;;;6.22;1.63;;;1.90;99.90;;;;;;6261434;28;20076;-78
2024/01/07 07:52:23;;;;;;;4.85;1.42;;;1.80;99.90;;;;;;6268344;28;20537;-78
2024/01/07 07:55:26;;;;;;;3.75;1.42;;;;;;;;;;6227240;28;20126;-78
2024/01/07 07:58:29;;;;;;;6.80;1.60;;;1.90;99.90;;;;;;6247488;28;20060;-78
2024/01/07 08:01:30;;;;;;;6.68;1.50;;;1.90;99.90;;;;;;6250580;28;20060;-79
2024/01/07 08:04:32;;;;;;;5.60;1.30;;;1.90;99.90;;;;;;6247837;28;20053;-78
2024/01/07 08:07:34;;;;;;;9.77;1.73;;;1.80;99.90;;;;;;6250918;28;20780;-79
2024/01/07 08:10:36;;;;;;;5.28;1.40;;;1.70;99.90;;;;;;6254581;28;20055;-79
2024/01/07 08:13:37;;;;;;;8.63;1.63;;;1.70;99.90;;;;;;6258143;28;20058;-78
2024/01/07 08:16:39;;;;;;;7.28;2.03;;;;;;;;;;6257517;28;20059;-79
2024/01/07 08:19:42;;;;;;;5.10;1.60;;;;;;;;;;6248424;28;20058;-79
2024/01/07 08:22:44;;;;;;;4.78;1.30;;;;;;;;;;6258663;28;20106;-79
2024/01/07 08:25:46;;;;;;;4.47;1.30;;;;;;;;;;6271320;28;20045;-79
2024/01/07 08:28:48;;;;;;;6.30;1.38;;;;;;;;;;6242338;28;20094;-79
2024/01/07 08:31:50;;;;;;;4.20;1.30;;;;;;;;;;6252242;28;20053;-81
2024/01/07 08:34:52;;;;;;;6.72;1.30;;;1.70;99.90;;;;;;6271575;28;20124;-79
2024/01/07 08:37:54;;;;;;;5.97;1.23;;;1.70;99.90;;;;;;6254547;28;20057;-79
2024/01/07 08:40:55;;;;;;;5.70;1.40;;;1.70;99.90;;;;;;6249428;28;20052;-78
2024/01/07 08:43:57;;;;;;;8.50;1.65;;;1.70;99.90;;;;;;6264413;28;20091;-79
2024/01/07 08:47:00;;;;;;;5.38;1.45;;;;;;;;;;6249667;28;20045;-79
2024/01/07 08:50:03;;;;;;;7.25;1.60;;;;;;;;;;6269632;28;20135;-78
2024/01/07 08:53:05;;;;;;;6.18;1.75;;;1.30;99.90;;;;;;6271081;28;20049;-79
2024/01/07 08:56:07;;;;;;;6.47;1.38;;;;;;;;;;6264689;28;20420;-82
2024/01/07 08:59:10;;;;;;;7.65;1.42;;;;;;;;;;6257627;28;20053;-80
2024/01/07 09:02:12;;;;;;;5.80;1.50;;;2.30;99.90;;;;;;6265502;28;20427;-80
2024/01/07 09:05:14;;;;;;;4.10;1.45;;;;;;;;;;6230040;28;20065;-79
2024/01/07 09:08:16;;;;;;;6.13;1.52;;;;;;;;;;6271151;28;20057;-80
2024/01/07 09:11:18;;;;;;;8.38;1.48;;;;;;;;;;6263245;28;20057;-79
2024/01/07 09:14:21;;;;;;;4.57;1.20;;;;;;;;;;6253923;28;20055;-80
2024/01/07 09:17:23;;;;;;;6.10;1.10;;;;;;;;;;6265384;28;20514;-80
2024/01/07 09:20:24;;;;;;;5.97;1.05;;;2.40;99.90;;;;;;6271506;28;20048;-80
2024/01/07 09:23:26;;;;;;;5.38;1.30;;;;;;;;;;6248199;28;20135;-80
2024/01/07 09:26:29;;;;;;;4.93;1.10;;;;;;;;;;6250992;28;20055;-80
2024/01/07 09:29:32;;;;;;;6.43;2.10;;;;;;;;;;6247870;28;20049;-81
2024/01/07 09:32:34;;;;;;;5.78;1.20;;;;;;;;;;6253033;28;20571;-79
2024/01/07 09:35:39;;;;;;;4.07;1.50;;;;;;;;;;6265542;28;20136;-79
2024/01/07 09:38:41;;;;;;;4.55;1.23;;;;;;;;;;6267546;28;20063;-79
2024/01/07 09:41:43;;;;;;;6.70;1.40;;;;;;;;;;6257345;28;20118;-80
2024/01/07 09:44:46;;;;;;;3.47;1.17;;;;;;;;;;6254092;28;20177;-80
2024/01/07 09:47:48;;;;;;;7.30;1.42;;;;;;;;;;6265294;28;20539;-81
2024/01/07 09:50:51;;;;;;;4.82;1.30;;;;;;;;;;6270529;28;20074;-81
2024/01/07 09:53:52;;;;;;;3.95;1.25;;;5.70;97.90;;;;;;6246231;28;20060;-84
2024/01/07 09:56:55;;;;;;;4.30;1.00;;;;;;;;;;6251786;28;20065;-85
2024/01/07 09:59:57;;;;;;;4.15;1.10;;;;;;;;;;6248002;28;20053;-84
2024/01/07 10:02:59;;;;;;;5.18;1.20;;;;;;;;;;6264585;28;20064;-83
2024/01/07 10:06:02;;;;;;;4.93;1.38;;;;;;;;;;6233533;28;20050;-84
2024/01/07 10:09:03;;;;;;;4.38;1.00;;;6.90;86.20;;;;;;6229600;28;20053;-92
2024/01/07 10:12:06;;;;;;;4.35;1.10;;;;;;;;;;6258621;28;20060;-87
2024/01/07 10:15:08;;;;;;;3.42;1.00;;;;;;;;;;6262346;28;20045;-85
2024/01/07 10:18:09;;;;;;;5.00;1.10;;;9.80;33.60;;;;;;6247756;28;20111;-87
2024/01/07 10:21:11;;;;;;;4.35;1.15;;;;;;;;;;6268950;28;20078;-88
2024/01/07 10:24:13;;;;;;;3.47;1.05;;;;;;;;;;6248267;28;20060;-87
2024/01/07 10:27:16;;;;;;;4.53;1.45;;;;;;;;;;6247658;28;20166;-87
2024/01/07 10:30:18;;;;;;;8.38;1.35;;;;;;;;;;6245501;28;20063;-88
2024/01/07 10:33:22;;;;;;;4.80;1.10;;;8.40;1.00;;;;;;6263750;28;20049;-85
2024/01/07 10:36:24;;;;;;;4.60;1.00;;;9.50;3.90;;;;;;6263092;28;20517;-85
2024/01/07 10:39:27;;;;;;;5.30;1.08;;;;;;;;;;6268937;28;20049;-86
2024/01/07 10:42:31;;;;;;;3.47;1.20;;;;;;;;;;6246006;28;20147;-86
2024/01/07 10:45:33;;;;;;;8.23;1.30;;;9.20;1.00;;;;;;6272362;28;20526;-90
2024/01/07 10:48:35;;;;;;;3.25;1.15;;;10.10;1.00;;;;;;6229412;28;20455;-86
2024/01/07 10:51:37;;;;;;;6.28;0.95;;;10.30;1.00;;;;;;6267855;28;20592;-86
2024/01/07 10:54:39;;;;;;;4.18;1.15;;;9.90;1.00;;;;;;6245625;28;20075;-88
2024/01/07 10:57:40;;;;;;;3.88;1.20;;;10.30;1.00;;;;;;6269524;28;20056;-87
2024/01/07 11:00:43;;;;;;;3.22;1.00;;;10.10;1.00;;;;;;6264586;28;20143;-89
2024/01/07 11:03:45;;;;;;;3.70;1.00;;;9.80;1.00;;;;;;6250579;28;20049;-86
2024/01/07 11:06:47;;;;;;;4.43;1.23;;;9.60;1.00;;;;;;6261193;28;20056;-86
2024/01/07 11:09:48;;;;;;;3.35;0.95;;;9.60;1.00;;;;;;6232941;28;20454;-90
2024/01/07 11:12:50;;;;;;;3.25;0.98;;;8.80;1.00;;;;;;6269582;28;20092;-89
2024/01/07 11:15:52;;;;;;;3.00;0.90;;;8.40;1.00;;;;;;6252910;28;20076;-88
2024/01/07 11:18:54;;;;;;;5.15;1.10;;;7.80;1.00;;;;;;6247608;28;20427;-86
2024/01/07 11:21:56;;;;;;;4.50;1.55;;;7.60;1.00;;;;;;6261866;28;20144;-87
2024/01/07 11:24:58;;;;;;;7.20;1.63;;;6.80;1.00;;;;;;6244023;28;20053;-86
2024/01/07 11:28:00;;;;;;;4.22;1.30;;;;;;;;;;6266757;28;20049;-85
2024/01/07 11:31:02;;;;;;;6.07;1.42;;;;;;;;;;6240176;28;20061;-89
2024/01/07 11:34:04;;;;;;;7.32;1.80;;;7.90;1.00;;;;;;6244669;28;20491;-90
2024/01/07 11:37:07;;;;;;;5.57;1.60;;;8.20;1.00;;;;;;6268736;28;20056;-89
2024/01/07 11:40:09;;;;;;;6.03;1.70;;;7.50;1.00;;;;;;6244323;28;20055;-81
2024/01/07 11:43:11;;;;;;;6.53;1.65;;;7.70;1.00;;;;;;6263744;28;20045;-85
2024/01/07 11:46:13;;;;;;;8.13;2.42;;;;;;;;;;6245060;28;20060;-83
2024/01/07 11:49:15;;;;;;;7.30;1.85;;;7.10;1.00;;;;;;6244543;28;20056;-87
2024/01/07 11:52:19;;;;;;;6.25;1.70;;;;;;;;;;6268685;28;20052;-86
2024/01/07 11:55:21;;;;;;;7.20;2.17;;;6.30;1.00;;;;;;6244176;28;20456;-88
2024/01/07 11:58:23;;;;;;;7.55;1.67;;;;;;;;;;6258717;28;20050;-86
2024/01/07 12:01:28;;;;;;;7.03;1.83;;;;;;;;;;6244051;28;20053;-86
2024/01/07 12:04:30;;;;;;;10.32;2.38;;;;;;;;;;6243738;28;20137;-86
2024/01/07 12:07:33;;;;;;;7.13;2.33;;;;;;;;;;6269287;28;20202;-84
2024/01/07 12:10:35;;;;;;;12.93;2.92;;;;;;;;;;6245859;28;20057;-88
2024/01/07 12:13:37;;;;;;;8.50;2.28;;;;;;;;;;6259325;28;20477;-88
2024/01/07 12:16:39;;;;;;;7.55;2.05;;;;;;;;;;6242143;28;20097;-85
2024/01/07 12:19:41;;;;;;;7.20;1.67;;;;;;;;;;6268471;28;20144;-87
2024/01/07 12:22:43;;;;;;;7.75;2.70;;;6.10;1.00;;;;;;6260292;28;20061;-85
2024/01/07 12:25:44;;;;;;;9.25;2.00;;;5.80;1.00;;;;;;6226589;28;20084;-88
2024/01/07 12:28:46;;;;;;;8.18;2.03;;;5.90;1.00;;;;;;6238404;28;20179;-87
2024/01/07 12:31:47;;;;;;;7.15;2.20;;;5.80;1.00;;;;;;6251555;28;20056;-88
2024/01/07 12:34:49;;;;;;;6.75;1.60;;;5.60;1.00;;;;;;6228076;28;20057;-85
2024/01/07 12:37:51;;;;;;;13.25;5.25;;;5.60;1.00;;;;;;6268306;28;20053;-85
2024/01/07 12:40:53;;;;;;;8.32;2.53;;;5.60;1.00;;;;;;6243913;28;20054;-87
2024/01/07 12:43:54;;;;;;;10.23;1.70;;;5.70;1.00;;;;;;6256353;28;20058;-86
2024/01/07 12:46:56;;;;;;;7.80;1.70;;;5.60;1.00;;;;;;6268278;28;20045;-87
2024/01/07 12:49:58;;;;;;;8.45;1.88;;;5.50;1.00;;;;;;6244338;28;20053;-84
2024/01/07 12:53:00;;;;;;;9.82;2.08;;;5.50;1.00;;;;;;6270661;28;20091;-85
2024/01/07 12:56:03;;;;;;;8.13;2.08;;;;;;;;;;6248366;28;20496;-85
2024/01/07 12:59:05;;;;;;;9.82;2.08;;;5.70;1.00;;;;;;6256989;28;20061;-85
2024/01/07 13:02:06;;;;;;;14.52;1.77;;;5.70;1.00;;;;;;6254590;28;20057;-85
2024/01/07 13:05:08;;;;;;;6.28;1.70;;;5.80;1.00;;;;;;6248659;28;20192;-84
2024/01/07 13:08:10;;;;;;;6.85;1.67;;;5.90;1.00;;;;;;6272399;28;20135;-85
2024/01/07 13:11:13;;;;;;;5.72;1.60;;;5.90;1.00;;;;;;6273374;28;20053;-84
2024/01/07 13:14:15;;;;;;;6.97;1.70;;;5.90;1.00;;;;;;6256015;28;20057;-82
2024/01/07 13:17:17;;;;;;;5.40;1.85;;;5.80;1.00;;;;;;6262467;28;20068;-83
2024/01/07 13:20:19;;;;;;;8.05;1.88;;;5.70;1.00;;;;;;6248013;28;20053;-85
2024/01/07 13:23:21;;;;;;;6.80;1.73;;;5.60;1.00;;;;;;6253836;28;20068;-84
2024/01/07 13:26:23;;;;;;;4.43;1.70;;;5.50;1.00;;;;;;6251888;28;20933;-83
2024/01/07 13:29:25;;;;;;;6.35;1.77;;;5.50;1.00;;;;;;6241566;28;20104;-84
2024/01/07 13:32:26;;;;;;;6.00;2.00;;;5.50;1.00;;;;;;6271603;28;20197;-83
2024/01/07 13:35:28;;;;;;;5.85;1.88;;;5.50;1.00;;;;;;6258086;28;20048;-83
2024/01/07 13:38:30;;;;;;;9.20;1.85;;;5.50;1.00;;;;;;6255371;28;20428;-86
2024/01/07 13:41:32;;;;;;;8.07;2.10;;;5.50;1.00;;;;;;6274762;28;20072;-84
2024/01/07 13:44:34;;;;;;;9.80;1.95;;;5.40;1.00;;;;;;6262462;28;20511;-86
2024/01/07 13:47:36;;;;;;;6.68;1.75;;;5.40;1.00;;;;;;6254413;28;20064;-85
2024/01/07 13:50:38;;;;;;;8.27;2.10;;;5.40;1.00;;;;;;6260992;28;20080;-85
2024/01/07 13:53:39;;;;;;;11.18;2.35;;;5.40;1.00;;;;;;6250650;28;20398;-83
2024/01/07 13:56:42;;;;;;;5.88;1.77;;;5.30;1.00;;;;;;6256253;28;20100;-85
2024/01/07 13:59:44;;;;;;;7.15;1.95;;;5.40;1.00;;;;;;6261495;28;20076;-88
2024/01/07 14:02:46;;;;;;;7.28;2.20;;;5.40;1.00;;;;;;6250857;28;20080;-88
2024/01/07 14:05:48;;;;;;;10.20;2.15;;;5.40;1.00;;;;;;6271774;28;20186;-85
2024/01/07 14:08:50;;;;;;;9.13;2.45;;;5.30;1.00;;;;;;6247977;28;20053;-86
2024/01/07 14:11:53;;;;;;;8.05;1.88;;;5.40;1.00;;;;;;6254543;28;20075;-86
2024/01/07 14:14:55;;;;;;;7.72;1.95;;;5.40;1.00;;;;;;6227697;28;20045;-86
2024/01/07 14:17:56;;;;;;;8.82;2.03;;;5.30;1.00;;;;;;6270684;28;20080;-86
2024/01/07 14:20:58;;;;;;;9.38;2.17;;;5.30;1.00;;;;;;6247696;28;20160;-87
2024/01/07 14:24:00;;;;;;;10.25;2.13;;;5.30;1.00;;;;;;6270341;28;20130;-88
2024/01/07 14:27:01;;;;;;;8.30;1.98;;;5.30;1.00;;;;;;6247481;28;20053;-86
2024/01/07 14:30:03;;;;;;;9.35;2.28;;;5.30;1.00;;;;;;6265633;28;20105;-87
2024/01/07 14:33:05;;;;;;;7.13;1.77;;;5.20;1.00;;;;;;6270995;28;20126;-87
2024/01/07 14:36:09;;;;;;;8.02;2.05;;;5.20;1.00;;;;;;6261269;28;20073;-86
2024/01/07 14:39:10;;;;;;;7.25;1.75;;;5.20;1.00;;;;;;6246316;28;20057;-82
2024/01/07 14:42:12;;;;;;;7.63;1.77;;;5.30;1.00;;;;;;6270566;28;20060;-82
2024/01/07 14:45:14;;;;;;;9.23;2.13;;;5.20;1.00;;;;;;6253539;28;20053;-88
2024/01/07 14:48:15;;;;;;;6.88;1.63;;;5.20;1.00;;;;;;6282570;28;20064;-89
2024/01/07 14:51:17;;;;;;;11.00;2.00;;;5.20;1.00;;;;;;6262399;28;20692;-89
2024/01/07 14:54:19;;;;;;;5.80;1.60;;;5.20;1.00;;;;;;6287517;28;20052;-89
2024/01/07 14:57:20;;;;;;;8.35;1.83;;;5.00;1.00;;;;;;6258608;28;20062;-87
2024/01/07 15:00:22;;;;;;;6.88;1.88;;;5.00;1.00;;;;;;6274240;28;20048;-85
2024/01/07 15:03:25;;;;;;;5.63;1.80;;;5.00;1.00;;;;;;6245684;28;20057;-84
2024/01/07 15:06:26;;;;;;;6.75;1.85;;;5.00;1.00;;;;;;6268362;28;20136;-84
2024/01/07 15:09:28;;;;;;;6.72;1.85;;;5.00;1.00;;;;;;6245774;28;20485;-86
2024/01/07 15:12:35;;;;;;;5.47;1.73;;;5.00;1.00;;;;;;6269666;28;20067;-86
2024/01/07 15:15:38;;;;;;;8.27;2.55;;;4.90;1.00;;;;;;6241276;28;20536;-87
2024/01/07 15:18:40;;;;;;;6.75;1.90;;;4.90;1.00;;;;;;6307060;22;20060;-87
2024/01/07 15:21:45;;;;;;;8.95;2.03;;;4.90;1.00;;;;;;6280072;28;20129;-85
2024/01/07 15:24:47;;;;;;;10.77;1.90;;;4.80;1.00;;;;;;6279188;28;20412;-84
2024/01/07 15:27:49;;;;;;;7.03;2.00;;;4.80;1.00;;;;;;6274510;28;20143;-87
2024/01/07 15:30:51;;;;;;;10.13;2.10;;;4.70;1.00;;;;;;6269075;28;20059;-86
2024/01/07 15:33:53;;;;;;;10.60;2.08;;;4.70;1.00;;;;;;6245514;28;20112;-86
2024/01/07 15:36:55;;;;;;;8.05;2.00;;;4.70;1.00;;;;;;6285687;28;20053;-84
2024/01/07 15:39:56;;;;;;;5.70;1.98;;;4.70;1.00;;;;;;6271141;28;20056;-87
2024/01/07 15:42:59;;;;;;;7.50;1.80;;;4.60;1.00;;;;;;6268407;28;20052;-85
2024/01/07 15:46:02;;;;;;;9.40;2.15;;;4.60;1.00;;;;;;6267085;28;20053;-85
2024/01/07 15:49:04;;;;;;;7.22;2.05;;;4.50;1.00;;;;;;6243789;28;20053;-84
2024/01/07 15:52:06;;;;;;;6.20;2.08;;;4.60;1.00;;;;;;6268281;28;20064;-85
2024/01/07 15:55:08;;;;;;;8.00;1.83;;;4.50;1.00;;;;;;6269407;28;20073;-85
2024/01/07 15:58:30;;;;;;;5.53;1.70;;;4.50;1.00;;;;;;6273399;28;20045;-86
2024/01/07 16:01:32;;;;;;;12.10;2.38;;;4.50;1.00;;;;;;6267696;28;20421;-85
2024/01/07 16:04:34;;;;;;;8.43;2.15;;;4.50;1.00;;;;;;6268004;28;20492;-86
2024/01/07 16:07:35;;;;;;;8.23;1.88;;;4.50;1.00;;;;;;6244692;28;20060;-85
2024/01/07 16:10:37;;;;;;;5.35;1.63;;;4.50;1.00;;;;;;6269475;28;20053;-86
2024/01/07 16:13:39;;;;;;;9.27;1.88;;;4.50;1.00;;;;;;6267576;28;20049;-86
2024/01/07 16:16:41;;;;;;;10.45;2.17;;;4.50;1.00;;;;;;6267982;28;20496;-84
2024/01/07 16:19:43;;;;;;;9.50;2.00;;;4.50;1.00;;;;;;6266979;28;20056;-88
2024/01/07 16:22:45;;;;;;;12.85;2.75;;;4.40;1.00;;;;;;6269256;28;20060;-85
2024/01/07 16:25:47;;;;;;;9.02;2.28;;;4.40;1.00;;;;;;6261860;28;20489;-84
2024/01/07 16:28:50;;;;;;;6.47;2.00;;;4.40;1.00;;;;;;6261884;28;20045;-85
2024/01/07 16:31:52;;;;;;;11.20;2.53;;;4.40;1.00;;;;;;6272923;28;20053;-86